Time;durP1;ratioP1;P1;durP2;ratioP2;P2;SDS_P1;SDS_P2;PMS_P1;PMS_P2;Temp;Humidity;BMP_temperature;BMP_pressure;BME280_temperature;BME280_humidity;BME280_pressure;Samples;Min_cycle;Max_cycle;Signal;HPM_P1;HPM_P2
2022/09/12 00:01:09;;;;;;;5.35;4.80;;;17.30;99.90;;;;;;5034717;28;20656;-81
2022/09/12 00:03:36;;;;;;;6.05;5.47;;;17.20;99.90;;;;;;5052409;28;20171;-80
2022/09/12 00:06:14;;;;;;;6.97;5.30;;;17.20;99.90;;;;;;5052216;28;20211;-80
2022/09/12 00:08:39;;;;;;;6.00;5.10;;;17.10;99.90;;;;;;5034090;28;20233;-80
2022/09/12 00:11:11;;;;;;;5.50;5.10;;;17.20;99.90;;;;;;5052175;28;20181;-80
2022/09/12 00:13:38;;;;;;;9.52;5.63;;;17.20;99.90;;;;;;5052439;28;20269;-81
2022/09/12 00:16:05;;;;;;;6.70;5.50;;;17.20;99.90;;;;;;5052436;28;20270;-80
2022/09/12 00:18:31;;;;;;;6.03;5.28;;;17.10;99.90;;;;;;5034416;28;20281;-80
2022/09/12 00:21:01;;;;;;;10.52;5.47;;;17.00;99.90;;;;;;5051911;28;20213;-80
2022/09/12 00:23:27;;;;;;;5.43;4.97;;;16.90;99.90;;;;;;5052232;28;20175;-83
2022/09/12 00:25:53;;;;;;;6.10;5.65;;;17.00;99.90;;;;;;5052012;28;20264;-80
2022/09/12 00:28:18;;;;;;;6.50;5.88;;;16.90;99.90;;;;;;5050995;28;20236;-80
2022/09/12 00:30:47;;;;;;;6.03;5.45;;;16.90;99.90;;;;;;5052099;28;20206;-80
2022/09/12 00:33:15;;;;;;;6.90;6.28;;;17.10;99.90;;;;;;5034014;28;20167;-80
2022/09/12 00:35:43;;;;;;;7.25;5.65;;;17.20;99.90;;;;;;5033988;28;20651;-80
2022/09/12 00:38:08;;;;;;;6.68;5.90;;;17.00;99.90;;;;;;5033436;28;20174;-81
2022/09/12 00:40:34;;;;;;;6.78;5.85;;;16.90;99.90;;;;;;5052024;28;20163;-80
2022/09/12 00:43:00;;;;;;;6.13;5.60;;;16.90;99.90;;;;;;5052105;28;20163;-80
2022/09/12 00:45:28;;;;;;;5.65;5.20;;;16.90;99.90;;;;;;5050434;28;20680;-80
2022/09/12 00:47:57;;;;;;;5.38;4.97;;;17.00;99.90;;;;;;5052036;28;20179;-80
2022/09/12 00:50:23;;;;;;;9.27;5.30;;;16.80;99.90;;;;;;5051928;28;20175;-81
2022/09/12 00:53:01;;;;;;;6.75;6.20;;;16.80;99.90;;;;;;5052037;28;20621;-80
2022/09/12 00:55:43;;;;;;;6.63;5.40;;;17.00;99.90;;;;;;5051744;28;20187;-80
2022/09/12 00:58:20;;;;;;;6.68;5.75;;;17.00;99.90;;;;;;5051858;28;20167;-81
2022/09/12 01:00:46;;;;;;;11.52;5.00;;;16.90;99.90;;;;;;5033977;28;20190;-80
2022/09/12 01:03:15;;;;;;;6.22;5.72;;;17.00;99.90;;;;;;5051942;28;20652;-81
2022/09/12 01:05:49;;;;;;;6.22;5.72;;;17.00;99.90;;;;;;5051573;28;20213;-80
2022/09/12 01:08:16;;;;;;;7.22;6.05;;;16.80;99.90;;;;;;5051841;28;20178;-80
2022/09/12 01:10:42;;;;;;;9.07;6.70;;;16.90;99.90;;;;;;5034239;28;20325;-80
2022/09/12 01:13:09;;;;;;;7.38;6.68;;;16.80;99.90;;;;;;5052183;28;20677;-81
2022/09/12 01:15:37;;;;;;;6.93;5.95;;;16.90;99.90;;;;;;5051954;28;20190;-80
2022/09/12 01:18:21;;;;;;;8.60;6.72;;;16.70;99.90;;;;;;5033756;28;20179;-80
2022/09/12 01:20:59;;;;;;;6.53;5.93;;;16.60;99.90;;;;;;5051704;28;20175;-82
2022/09/12 01:23:33;;;;;;;7.10;6.43;;;16.70;99.90;;;;;;5033980;28;20171;-81
2022/09/12 01:26:51;;;;;;;8.80;5.65;;;16.70;99.90;;;;;;5051594;28;20218;-80
2022/09/12 01:29:41;;;;;;;8.55;6.13;;;16.70;99.90;;;;;;5052234;28;20175;-79
2022/09/12 01:32:31;;;;;;;6.82;6.15;;;16.80;99.90;;;;;;5051703;28;20183;-80
2022/09/12 01:35:23;;;;;;;6.78;6.18;;;16.80;99.90;;;;;;5051728;28;20187;-81
2022/09/12 01:37:55;;;;;;;7.28;6.60;;;16.70;99.90;;;;;;5051304;28;20171;-81
2022/09/12 01:40:48;;;;;;;9.45;6.20;;;16.70;99.90;;;;;;5051409;28;20163;-80
2022/09/12 01:43:36;;;;;;;9.13;6.57;;;16.70;99.90;;;;;;5051784;28;20172;-80
2022/09/12 01:46:14;;;;;;;11.80;6.53;;;16.70;99.90;;;;;;5033956;28;20214;-80
2022/09/12 01:49:07;;;;;;;7.38;6.65;;;16.80;99.90;;;;;;5051619;28;20163;-80
2022/09/12 01:51:52;;;;;;;12.00;6.88;;;16.80;99.90;;;;;;5043447;28;20269;-80
2022/09/12 01:54:30;;;;;;;6.15;5.65;;;16.90;99.90;;;;;;5036605;28;20191;-80
2022/09/12 01:57:02;;;;;;;7.60;6.65;;;16.70;99.90;;;;;;5036655;28;20178;-80
2022/09/12 01:59:34;;;;;;;8.82;6.80;;;16.70;99.90;;;;;;5054597;28;20301;-80
2022/09/12 02:02:29;;;;;;;6.82;6.32;;;16.70;99.90;;;;;;5036792;28;20179;-80
2022/09/12 02:05:21;;;;;;;6.45;5.95;;;16.70;99.90;;;;;;5023617;28;20214;-80
2022/09/12 02:07:52;;;;;;;8.77;6.40;;;16.60;99.90;;;;;;5036943;28;20179;-80
2022/09/12 02:10:24;;;;;;;9.48;5.97;;;16.50;99.90;;;;;;5054780;28;20159;-80
2022/09/12 02:12:58;;;;;;;7.05;6.32;;;16.50;99.90;;;;;;5055110;28;20171;-80
2022/09/12 02:15:36;;;;;;;10.05;6.22;;;16.50;99.90;;;;;;5036412;28;20289;-80
2022/09/12 02:18:05;;;;;;;6.63;6.10;;;16.50;99.90;;;;;;5054586;28;20312;-80
2022/09/12 02:20:36;;;;;;;7.03;6.38;;;16.50;99.90;;;;;;5036811;28;20257;-81
2022/09/12 02:23:03;;;;;;;7.65;6.85;;;16.50;99.90;;;;;;5055073;28;20175;-80
2022/09/12 02:25:29;;;;;;;6.45;5.95;;;16.50;99.90;;;;;;5054861;28;20203;-80
2022/09/12 02:28:03;;;;;;;9.88;6.55;;;16.50;99.90;;;;;;5055368;28;20213;-80
2022/09/12 02:30:39;;;;;;;8.88;6.82;;;16.60;99.90;;;;;;5069061;28;20202;-80
2022/09/12 02:33:25;;;;;;;7.43;6.72;;;16.60;99.90;;;;;;5056645;28;20171;-80
2022/09/12 02:36:10;;;;;;;11.77;8.07;;;16.60;99.90;;;;;;5073319;28;20194;-80
2022/09/12 02:38:47;;;;;;;9.70;6.78;;;16.50;99.90;;;;;;5075115;28;20223;-80
2022/09/12 02:41:16;;;;;;;7.38;6.72;;;16.50;99.90;;;;;;5072788;28;20204;-82
2022/09/12 02:43:42;;;;;;;7.38;6.88;;;16.60;99.90;;;;;;5055616;28;20175;-80
2022/09/12 02:46:12;;;;;;;7.22;6.53;;;16.60;99.90;;;;;;5058942;28;20203;-80
2022/09/12 02:48:40;;;;;;;7.72;6.35;;;16.70;99.90;;;;;;5054089;28;20195;-79
2022/09/12 02:51:06;;;;;;;8.63;6.93;;;16.60;99.90;;;;;;5039853;28;20223;-80
2022/09/12 02:53:32;;;;;;;8.90;8.05;;;16.40;99.90;;;;;;5054114;28;20174;-79
2022/09/12 02:55:58;;;;;;;7.32;6.75;;;16.40;99.90;;;;;;5055167;28;20568;-79
2022/09/12 02:58:28;;;;;;;7.80;7.20;;;16.40;99.90;;;;;;5053639;28;20162;-79
2022/09/12 03:01:03;;;;;;;15.02;7.80;;;16.40;99.90;;;;;;5053412;28;20194;-79
2022/09/12 03:03:37;;;;;;;10.63;7.50;;;16.30;99.90;;;;;;5054278;28;20162;-80
2022/09/12 03:06:18;;;;;;;8.70;7.90;;;16.40;99.90;;;;;;5053438;28;20226;-80
2022/09/12 03:08:55;;;;;;;7.47;6.88;;;16.40;99.90;;;;;;5053348;28;20253;-79
2022/09/12 03:11:44;;;;;;;7.25;6.53;;;16.30;99.90;;;;;;5053217;28;20170;-81
2022/09/12 03:14:15;;;;;;;10.05;7.05;;;16.20;99.90;;;;;;5035229;28;20210;-80
2022/09/12 03:17:01;;;;;;;7.53;6.53;;;16.30;99.90;;;;;;5052851;28;20328;-80
2022/09/12 03:19:33;;;;;;;11.63;6.68;;;16.40;99.90;;;;;;5034589;28;20201;-80
2022/09/12 03:22:20;;;;;;;9.05;8.25;;;16.40;99.90;;;;;;5053348;28;20530;-80
2022/09/12 03:25:12;;;;;;;9.40;7.50;;;16.40;99.90;;;;;;5035225;28;20767;-80
2022/09/12 03:27:49;;;;;;;9.32;8.02;;;16.40;99.90;;;;;;5035127;28;20178;-80
2022/09/12 03:30:14;;;;;;;9.52;7.72;;;16.40;99.90;;;;;;5035363;28;20281;-80
2022/09/12 03:32:42;;;;;;;14.70;7.90;;;16.40;99.90;;;;;;5035143;28;20684;-81
2022/09/12 03:35:09;;;;;;;12.98;8.30;;;16.30;99.90;;;;;;5052871;28;20178;-80
2022/09/12 03:37:34;;;;;;;8.23;7.40;;;16.20;99.90;;;;;;5052852;28;20643;-80
2022/09/12 03:40:00;;;;;;;8.20;6.97;;;16.30;99.90;;;;;;5052880;28;20246;-80
2022/09/12 03:42:26;;;;;;;11.07;8.23;;;16.40;99.90;;;;;;5035231;28;20702;-80
2022/09/12 03:44:51;;;;;;;9.07;8.20;;;16.50;99.90;;;;;;5034821;28;20219;-80
2022/09/12 03:47:17;;;;;;;8.32;7.72;;;16.30;99.90;;;;;;5052438;28;20175;-80
2022/09/12 03:49:42;;;;;;;9.10;8.30;;;16.30;99.90;;;;;;5052637;28;20163;-81
2022/09/12 03:52:08;;;;;;;9.00;7.78;;;16.40;99.90;;;;;;5052360;28;20167;-80
2022/09/12 03:54:33;;;;;;;17.05;8.05;;;16.40;99.90;;;;;;5052378;28;20191;-80
2022/09/12 03:56:59;;;;;;;12.20;8.52;;;16.40;99.90;;;;;;5051153;28;20163;-81
2022/09/12 03:59:25;;;;;;;10.30;7.78;;;16.40;99.90;;;;;;5052367;28;20300;-80
2022/09/12 04:01:50;;;;;;;9.93;7.93;;;16.40;99.90;;;;;;5034623;28;20236;-81
2022/09/12 04:04:16;;;;;;;10.18;7.45;;;16.30;99.90;;;;;;5052239;28;20183;-80
2022/09/12 04:06:42;;;;;;;7.85;7.15;;;16.20;99.90;;;;;;5034335;28;20717;-80
2022/09/12 04:09:08;;;;;;;8.40;7.53;;;16.30;99.90;;;;;;5052329;28;20178;-81
2022/09/12 04:11:34;;;;;;;7.88;7.18;;;16.40;99.90;;;;;;5052534;28;20184;-80
2022/09/12 04:14:00;;;;;;;8.98;8.13;;;16.40;99.90;;;;;;5033441;28;20178;-80
2022/09/12 04:16:26;;;;;;;9.38;8.45;;;16.40;99.90;;;;;;5052449;28;20164;-80
2022/09/12 04:18:51;;;;;;;8.80;7.72;;;16.40;99.90;;;;;;5050886;28;20199;-81
2022/09/12 04:21:20;;;;;;;8.38;7.47;;;16.20;99.90;;;;;;5052103;28;20163;-80
2022/09/12 04:23:46;;;;;;;11.63;7.55;;;16.20;99.90;;;;;;5051971;28;20165;-81
2022/09/12 04:26:12;;;;;;;10.07;8.20;;;16.20;99.90;;;;;;5052297;28;20202;-80
2022/09/12 04:28:39;;;;;;;9.18;7.28;;;16.20;99.90;;;;;;5052418;28;20629;-81
2022/09/12 04:31:08;;;;;;;16.17;8.70;;;16.20;99.90;;;;;;5052264;28;20178;-81
2022/09/12 04:33:34;;;;;;;10.30;8.10;;;16.20;99.90;;;;;;5052455;28;20521;-81
2022/09/12 04:36:05;;;;;;;15.52;8.18;;;16.30;99.90;;;;;;5033997;28;20656;-81
2022/09/12 04:38:31;;;;;;;13.23;7.90;;;16.30;99.90;;;;;;5052027;28;20270;-81
2022/09/12 04:40:57;;;;;;;11.63;8.40;;;16.30;99.90;;;;;;5052203;28;20202;-81
2022/09/12 04:43:23;;;;;;;12.38;8.13;;;16.30;99.90;;;;;;5033654;28;20213;-80
2022/09/12 04:45:48;;;;;;;12.25;8.50;;;16.20;99.90;;;;;;5051510;28;20620;-80
2022/09/12 04:48:14;;;;;;;7.97;7.18;;;16.20;99.90;;;;;;5050603;28;20167;-81
2022/09/12 04:50:39;;;;;;;12.45;8.88;;;16.10;99.90;;;;;;5051706;28;20167;-81
2022/09/12 04:53:06;;;;;;;10.05;9.05;;;16.10;99.90;;;;;;5034262;28;20198;-81
2022/09/12 04:55:33;;;;;;;14.52;8.38;;;16.10;99.90;;;;;;5051421;28;20183;-80
2022/09/12 04:58:00;;;;;;;13.43;8.18;;;16.10;99.90;;;;;;5051967;28;20168;-80
2022/09/12 05:00:26;;;;;;;8.38;7.60;;;15.90;99.90;;;;;;5051748;28;20253;-81
2022/09/12 05:02:52;;;;;;;12.82;8.00;;;15.80;99.90;;;;;;5051781;28;20255;-81
2022/09/12 05:05:17;;;;;;;11.35;9.73;;;15.90;99.90;;;;;;5050273;28;20250;-81
2022/09/12 05:07:43;;;;;;;9.20;8.23;;;15.90;99.90;;;;;;5050527;28;20685;-81
2022/09/12 05:10:09;;;;;;;10.00;8.25;;;16.00;99.90;;;;;;5033685;28;20722;-81
2022/09/12 05:12:35;;;;;;;9.13;8.38;;;16.10;99.90;;;;;;5051707;28;20164;-81
2022/09/12 05:15:01;;;;;;;11.82;9.15;;;16.10;99.90;;;;;;5033184;28;20640;-81
2022/09/12 05:17:30;;;;;;;19.38;9.30;;;16.10;99.90;;;;;;5051387;28;20191;-81
2022/09/12 05:19:55;;;;;;;14.90;9.07;;;16.10;99.90;;;;;;5033596;28;20168;-81
2022/09/12 05:22:21;;;;;;;13.07;8.73;;;16.10;99.90;;;;;;5034128;28;20174;-80
2022/09/12 05:24:47;;;;;;;10.35;9.05;;;16.10;99.90;;;;;;5053670;28;20195;-80
2022/09/12 05:27:13;;;;;;;13.15;9.48;;;16.10;99.90;;;;;;5055572;28;20627;-80
2022/09/12 05:29:38;;;;;;;11.63;9.43;;;15.90;99.90;;;;;;5055407;28;20164;-81
2022/09/12 05:32:04;;;;;;;11.80;8.75;;;15.90;99.90;;;;;;5055261;28;20512;-80
2022/09/12 05:34:30;;;;;;;12.30;9.57;;;16.00;99.90;;;;;;5055371;28;20211;-80
2022/09/12 05:36:55;;;;;;;13.98;9.35;;;16.00;99.90;;;;;;5037238;28;20637;-81
2022/09/12 05:39:21;;;;;;;10.98;9.20;;;16.00;99.90;;;;;;5055061;28;20242;-80
2022/09/12 05:41:47;;;;;;;11.70;9.27;;;15.90;99.90;;;;;;5055369;28;20215;-80
2022/09/12 05:44:13;;;;;;;11.77;9.13;;;15.90;99.90;;;;;;5055036;28;20183;-81
2022/09/12 05:46:44;;;;;;;19.48;9.82;;;16.00;99.90;;;;;;5037330;28;20207;-80
2022/09/12 05:49:12;;;;;;;13.60;9.35;;;16.00;99.90;;;;;;5055702;28;20160;-83
2022/09/12 05:51:40;;;;;;;13.30;9.07;;;16.10;99.90;;;;;;5037592;28;20175;-82
2022/09/12 05:54:09;;;;;;;11.73;9.35;;;16.10;99.90;;;;;;5055528;28;20342;-84
2022/09/12 05:56:41;;;;;;;11.43;9.65;;;16.20;99.90;;;;;;5056674;28;20163;-90
2022/09/12 05:59:13;;;;;;;19.45;9.40;;;15.90;99.90;;;;;;5038188;28;20207;-87
2022/09/12 06:01:39;;;;;;;11.65;9.88;;;15.90;99.90;;;;;;5055410;28;20219;-88
2022/09/12 06:04:05;;;;;;;8.60;7.80;;;16.00;99.90;;;;;;5037731;28;20194;-85
2022/09/12 06:06:35;;;;;;;11.32;9.45;;;15.90;99.90;;;;;;5037586;28;20210;-91
2022/09/12 06:09:02;;;;;;;11.07;9.07;;;15.90;99.90;;;;;;5037879;28;20167;-86
2022/09/12 06:11:30;;;;;;;11.35;9.68;;;16.10;99.90;;;;;;5037546;28;20167;-85
2022/09/12 06:13:57;;;;;;;11.73;9.00;;;16.10;99.90;;;;;;5037143;28;20171;-84
2022/09/12 06:16:26;;;;;;;19.23;8.90;;;16.20;99.90;;;;;;5037356;28;20249;-84
2022/09/12 06:18:57;;;;;;;16.23;9.38;;;16.20;99.90;;;;;;5037698;28;20245;-86
2022/09/12 06:21:25;;;;;;;13.35;10.27;;;16.20;99.90;;;;;;5036856;28;20178;-82
2022/09/12 06:23:53;;;;;;;14.10;10.50;;;16.30;99.90;;;;;;5052876;28;20164;-80
2022/09/12 06:26:24;;;;;;;21.60;9.95;;;16.40;99.90;;;;;;5054096;28;20199;-80
2022/09/12 06:28:52;;;;;;;14.55;9.32;;;16.60;99.90;;;;;;5054130;28;20523;-80
2022/09/12 06:31:21;;;;;;;18.58;8.82;;;16.70;99.90;;;;;;5054721;28;20592;-80
2022/09/12 06:33:49;;;;;;;12.30;10.35;;;16.90;99.90;;;;;;5036197;28;20479;-81
2022/09/12 06:36:17;;;;;;;12.85;9.07;;;17.00;99.90;;;;;;5052751;28;20160;-83
2022/09/12 06:38:45;;;;;;;12.05;10.32;;;17.10;99.90;;;;;;5036102;28;20163;-83
2022/09/12 06:41:11;;;;;;;12.43;9.05;;;17.20;99.90;;;;;;5035664;28;20266;-82
2022/09/12 06:43:37;;;;;;;11.55;8.60;;;17.30;99.90;;;;;;5035655;28;20563;-82
2022/09/12 06:46:04;;;;;;;13.48;9.30;;;17.40;99.90;;;;;;5053556;28;20261;-82
2022/09/12 06:48:29;;;;;;;18.65;8.98;;;17.40;99.90;;;;;;5035594;28;20574;-83
2022/09/12 06:51:03;;;;;;;12.75;8.88;;;17.50;99.90;;;;;;5035843;28;20167;-83
2022/09/12 06:53:32;;;;;;;10.18;9.18;;;17.60;99.90;;;;;;5053742;28;20629;-82
2022/09/12 06:55:59;;;;;;;18.02;8.77;;;17.70;99.90;;;;;;5053819;28;20316;-90
2022/09/12 06:58:26;;;;;;;20.40;8.43;;;17.90;99.90;;;;;;5036189;28;20175;-84
2022/09/12 07:00:52;;;;;;;18.27;9.32;;;18.00;99.90;;;;;;5037163;28;20178;-84
2022/09/12 07:03:18;;;;;;;18.50;9.27;;;18.10;99.90;;;;;;5036206;28;20160;-84
2022/09/12 07:05:47;;;;;;;15.73;9.48;;;18.30;99.90;;;;;;5053852;28;20582;-84
2022/09/12 07:08:12;;;;;;;12.18;8.23;;;18.40;99.90;;;;;;5052967;28;20163;-85
2022/09/12 07:10:38;;;;;;;13.55;8.75;;;18.40;99.90;;;;;;5035999;28;20167;-82
2022/09/12 07:13:03;;;;;;;10.52;8.18;;;18.50;99.90;;;;;;5053633;28;20171;-84
2022/09/12 07:15:30;;;;;;;8.50;7.60;;;18.60;99.90;;;;;;5054272;28;20254;-85
2022/09/12 07:17:55;;;;;;;14.02;8.40;;;18.80;99.90;;;;;;5052151;28;20179;-83
2022/09/12 07:20:22;;;;;;;8.07;7.28;;;18.90;99.90;;;;;;5035101;28;20538;-83
2022/09/12 07:22:47;;;;;;;10.15;6.78;;;19.00;99.90;;;;;;5035670;28;20265;-83
2022/09/12 07:25:13;;;;;;;7.53;6.82;;;19.00;99.90;;;;;;5035337;28;20326;-85
2022/09/12 07:27:38;;;;;;;11.45;6.65;;;19.10;99.90;;;;;;5053336;28;20167;-83
2022/09/12 07:30:06;;;;;;;16.75;5.78;;;19.30;99.90;;;;;;5035272;28;20179;-82
2022/09/12 07:32:32;;;;;;;6.68;5.28;;;19.40;99.90;;;;;;5053019;28;20163;-83
2022/09/12 07:34:58;;;;;;;9.70;4.72;;;19.50;99.90;;;;;;5035109;28;20191;-81
2022/09/12 07:37:23;;;;;;;6.22;5.22;;;19.50;99.90;;;;;;5052852;28;20625;-81
2022/09/12 07:39:49;;;;;;;9.38;4.90;;;19.50;99.90;;;;;;5052762;28;20208;-81
2022/09/12 07:42:15;;;;;;;7.72;5.18;;;19.70;99.90;;;;;;5051367;28;20196;-81
2022/09/12 07:44:41;;;;;;;9.15;4.60;;;19.80;99.90;;;;;;5052576;28;20645;-81
2022/09/12 07:47:07;;;;;;;5.55;4.72;;;19.70;99.90;;;;;;5034808;28;20181;-83
2022/09/12 07:49:32;;;;;;;5.20;4.35;;;19.80;99.90;;;;;;5051677;28;20171;-81
2022/09/12 07:51:58;;;;;;;4.05;3.42;;;19.70;99.90;;;;;;5053313;28;20167;-85
2022/09/12 07:54:23;;;;;;;8.02;5.03;;;19.90;99.90;;;;;;5035310;28;20656;-84
2022/09/12 07:56:49;;;;;;;5.38;4.22;;;20.10;99.90;;;;;;5053105;28;20169;-83
2022/09/12 07:59:15;;;;;;;7.05;4.05;;;20.20;99.90;;;;;;5052683;28;20796;-83
2022/09/12 08:01:41;;;;;;;11.38;4.43;;;20.30;99.90;;;;;;5034830;28;20171;-83
2022/09/12 08:04:07;;;;;;;5.05;3.88;;;20.30;99.90;;;;;;5035051;28;20241;-84
2022/09/12 08:06:34;;;;;;;8.90;4.07;;;20.30;99.90;;;;;;5034863;28;20199;-85
2022/09/12 08:09:00;;;;;;;7.40;5.43;;;20.40;99.90;;;;;;5034906;28;20171;-83
2022/09/12 08:11:28;;;;;;;8.15;4.05;;;20.50;99.90;;;;;;5034846;28;20163;-83
2022/09/12 08:13:55;;;;;;;9.18;3.28;;;20.30;99.90;;;;;;5052572;28;20225;-82
2022/09/12 08:16:24;;;;;;;4.78;3.22;;;20.50;99.90;;;;;;5034612;28;20156;-83
2022/09/12 08:18:50;;;;;;;6.07;3.58;;;20.70;99.90;;;;;;5034205;28;20182;-83
2022/09/12 08:21:21;;;;;;;4.70;3.50;;;20.90;99.90;;;;;;5052254;28;20186;-82
2022/09/12 08:23:51;;;;;;;9.90;3.55;;;21.00;99.90;;;;;;5052017;28;20541;-82
2022/09/12 08:26:17;;;;;;;4.80;3.38;;;21.10;99.90;;;;;;5034223;28;21249;-82
2022/09/12 08:28:44;;;;;;;7.30;4.47;;;21.00;99.90;;;;;;5018239;28;20293;-82
2022/09/12 08:31:12;;;;;;;7.20;4.15;;;20.90;99.90;;;;;;5052022;28;20584;-83
2022/09/12 08:33:38;;;;;;;5.35;4.25;;;20.70;99.90;;;;;;5034443;28;20617;-82
2022/09/12 08:36:06;;;;;;;4.40;4.00;;;20.70;99.90;;;;;;5034373;28;20278;-85
2022/09/12 08:38:33;;;;;;;7.05;4.50;;;20.90;99.90;;;;;;5054215;28;20735;-88
2022/09/12 08:41:02;;;;;;;10.20;4.40;;;21.00;99.90;;;;;;5034577;28;20625;-86
2022/09/12 08:43:55;;;;;;;4.53;3.70;;;20.90;99.90;;;;;;5055523;28;20206;-86
2022/09/12 08:46:23;;;;;;;9.40;3.90;;;21.00;99.90;;;;;;5034206;28;20211;-83
2022/09/12 08:48:50;;;;;;;3.83;3.42;;;21.20;99.90;;;;;;5052605;28;20187;-84
2022/09/12 08:51:19;;;;;;;6.70;4.00;;;21.40;99.90;;;;;;5052139;28;20197;-82
2022/09/12 08:53:48;;;;;;;13.80;3.97;;;21.60;99.90;;;;;;5032870;28;20206;-87
2022/09/12 08:56:15;;;;;;;3.92;3.53;;;21.60;99.90;;;;;;5032829;28;20199;-84
2022/09/12 08:58:43;;;;;;;6.35;2.90;;;21.80;99.90;;;;;;5032811;28;20175;-82
2022/09/12 09:01:34;;;;;;;4.53;3.08;;;21.90;99.90;;;;;;5036656;28;20167;-82
2022/09/12 09:04:18;;;;;;;6.65;3.50;;;22.10;99.90;;;;;;5036436;28;20168;-85
2022/09/12 09:07:08;;;;;;;4.40;3.00;;;22.10;99.90;;;;;;5052814;28;20202;-86
2022/09/12 09:09:43;;;;;;;6.65;2.80;;;21.90;99.90;;;;;;5076455;28;20162;-83
2022/09/12 09:12:41;;;;;;;4.03;2.72;;;22.00;99.90;;;;;;5058142;28;20174;-85
2022/09/12 09:15:09;;;;;;;5.57;2.55;;;22.20;99.90;;;;;;5056024;28;20667;-86
2022/09/12 09:17:48;;;;;;;7.82;2.55;;;22.30;99.90;;;;;;5072472;28;20199;-85
2022/09/12 09:20:29;;;;;;;3.00;2.70;;;22.30;99.90;;;;;;5056274;28;20167;-86
2022/09/12 09:23:16;;;;;;;2.35;2.15;;;22.40;99.90;;;;;;5056108;28;20265;-83
2022/09/12 09:26:09;;;;;;;10.15;2.60;;;22.50;99.90;;;;;;5037730;28;20278;-83
2022/09/12 09:29:01;;;;;;;2.85;2.15;;;22.60;99.90;;;;;;5055437;28;20190;-85
2022/09/12 09:31:34;;;;;;;4.47;2.28;;;22.70;99.90;;;;;;5055692;28;20234;-83
2022/09/12 09:34:00;;;;;;;4.75;2.45;;;22.60;99.90;;;;;;5055634;28;20178;-84
2022/09/12 09:36:48;;;;;;;2.92;2.65;;;22.70;99.90;;;;;;5050536;28;20170;-83
2022/09/12 09:39:41;;;;;;;4.43;2.55;;;22.80;99.90;;;;;;5040374;28;20185;-84
2022/09/12 09:42:33;;;;;;;2.78;2.35;;;22.80;99.90;;;;;;5039704;28;20540;-84
2022/09/12 09:45:03;;;;;;;4.50;3.03;;;23.00;99.90;;;;;;5057062;28;20665;-84
2022/09/12 09:47:29;;;;;;;3.67;2.42;;;23.00;99.90;;;;;;5072415;28;20650;-85
2022/09/12 09:49:54;;;;;;;4.55;1.95;;;22.90;99.90;;;;;;5055231;28;20167;-91
2022/09/12 09:52:27;;;;;;;3.33;2.72;;;22.90;99.90;;;;;;5071925;28;20690;-84
2022/09/12 09:54:58;;;;;;;3.65;2.80;;;22.90;99.90;;;;;;5072153;28;20201;-93
2022/09/12 09:57:35;;;;;;;9.85;2.85;;;22.80;99.90;;;;;;5056965;28;20190;-90
2022/09/12 10:00:33;;;;;;;2.75;2.33;;;22.90;99.90;;;;;;5073429;28;20258;-93
2022/09/12 10:03:08;;;;;;;2.70;1.90;;;22.90;99.90;;;;;;5072280;28;20175;-83
2022/09/12 10:05:44;;;;;;;1.65;1.52;;;23.00;99.90;;;;;;5056291;28;20202;-88
2022/09/12 10:08:18;;;;;;;5.78;2.20;;;23.30;99.90;;;;;;5056327;28;20155;-87
2022/09/12 10:11:02;;;;;;;9.25;2.42;;;23.40;99.90;;;;;;5054913;28;20200;-89
2022/09/12 10:13:36;;;;;;;6.97;2.30;;;23.40;99.90;;;;;;5071863;28;20182;-88
2022/09/12 10:16:24;;;;;;;7.40;1.63;;;23.30;99.90;;;;;;5071371;28;20183;-95
2022/09/12 10:18:53;;;;;;;5.35;1.67;;;23.10;99.90;;;;;;5053707;28;20198;-84
2022/09/12 10:21:42;;;;;;;2.28;1.63;;;23.40;99.90;;;;;;5064188;28;20164;-81
2022/09/12 10:24:25;;;;;;;2.35;2.15;;;23.60;99.90;;;;;;5056403;28;20245;-80
2022/09/12 10:26:57;;;;;;;5.68;1.70;;;23.70;99.90;;;;;;5037687;28;20206;-80
2022/09/12 10:29:32;;;;;;;1.60;1.35;;;23.60;99.90;;;;;;5054929;28;20167;-81
2022/09/12 10:32:02;;;;;;;9.60;1.92;;;23.60;99.90;;;;;;5054796;28;20171;-80
2022/09/12 10:34:33;;;;;;;2.75;2.03;;;23.60;99.90;;;;;;5054408;28;20217;-81
2022/09/12 10:37:22;;;;;;;3.17;1.75;;;23.60;99.90;;;;;;5069151;28;20178;-81
2022/09/12 10:39:58;;;;;;;15.57;1.77;;;23.60;99.90;;;;;;5052727;28;20163;-81
2022/09/12 10:42:47;;;;;;;2.85;1.45;;;23.70;99.90;;;;;;5053660;28;20175;-81
2022/09/12 10:45:20;;;;;;;2.95;1.88;;;24.00;99.90;;;;;;5053398;28;20656;-81
2022/09/12 10:47:46;;;;;;;5.07;1.48;;;23.80;99.90;;;;;;5069006;28;20171;-81
2022/09/12 10:50:20;;;;;;;2.45;1.83;;;23.60;99.90;;;;;;5069696;28;20231;-84
2022/09/12 10:52:46;;;;;;;4.00;1.90;;;23.80;99.90;;;;;;5054334;28;20616;-82
2022/09/12 10:55:14;;;;;;;3.05;1.35;;;23.80;99.90;;;;;;5069353;28;20191;-82
2022/09/12 10:58:03;;;;;;;4.13;2.15;;;23.80;99.90;;;;;;5053974;28;20194;-83
2022/09/12 11:00:31;;;;;;;1.67;1.40;;;24.00;99.90;;;;;;5069428;28;20182;-82
2022/09/12 11:03:21;;;;;;;3.25;1.60;;;24.10;99.90;;;;;;5053866;28;20187;-81
2022/09/12 11:05:54;;;;;;;3.45;1.90;;;24.10;99.90;;;;;;5053365;28;20203;-81
2022/09/12 11:08:29;;;;;;;4.80;1.48;;;24.20;99.90;;;;;;5069400;28;20539;-81
2022/09/12 11:11:33;;;;;;;2.05;1.35;;;24.10;99.90;;;;;;5068663;28;20589;-81
2022/09/12 11:14:11;;;;;;;3.35;1.70;;;24.10;99.90;;;;;;5053359;28;20178;-81
2022/09/12 11:17:11;;;;;;;1.75;1.20;;;24.20;99.90;;;;;;5053388;28;20228;-83
2022/09/12 11:19:59;;;;;;;1.60;1.00;;;24.20;99.90;;;;;;5036386;28;20198;-88
2022/09/12 11:22:35;;;;;;;4.63;2.30;;;24.20;99.90;;;;;;5053303;28;20246;-88
2022/09/12 11:25:26;;;;;;;2.35;1.23;;;24.30;99.90;;;;;;5035328;28;20207;-86
2022/09/12 11:27:56;;;;;;;1.50;1.30;;;24.50;99.90;;;;;;5034530;28;20207;-86
2022/09/12 11:30:22;;;;;;;1.27;1.17;;;24.50;99.90;;;;;;5053092;28;20209;-87
2022/09/12 11:33:01;;;;;;;2.53;1.52;;;24.50;99.90;;;;;;5034791;28;20167;-86
2022/09/12 11:35:31;;;;;;;1.67;1.48;;;24.70;99.90;;;;;;5034340;28;20279;-88
2022/09/12 11:38:42;;;;;;;1.65;1.30;;;24.70;99.90;;;;;;5053055;28;20175;-86
2022/09/12 11:41:15;;;;;;;1.52;1.35;;;24.70;99.90;;;;;;5020298;28;20179;-87
2022/09/12 11:44:14;;;;;;;2.20;1.50;;;24.70;99.90;;;;;;5056031;28;20248;-87
2022/09/12 11:46:42;;;;;;;6.00;2.05;;;24.80;99.90;;;;;;5073450;28;20635;-95
2022/09/12 11:49:14;;;;;;;5.07;1.35;;;24.80;99.90;;;;;;5041066;28;20163;-96
2022/09/12 11:52:02;;;;;;;3.13;0.95;;;24.90;99.90;;;;;;5058957;28;20258;-94
2022/09/12 11:54:39;;;;;;;8.32;1.85;;;25.00;99.90;;;;;;5060248;28;20271;-90
2022/09/12 11:57:23;;;;;;;6.70;1.27;;;24.80;99.90;;;;;;5077614;28;20167;-94
2022/09/12 11:59:54;;;;;;;3.20;1.27;;;24.80;99.90;;;;;;5076345;28;20643;-96
2022/09/12 12:02:41;;;;;;;1.20;1.10;;;24.90;99.90;;;;;;5076991;28;20171;-93
2022/09/12 12:05:34;;;;;;;3.72;1.20;;;25.00;99.90;;;;;;5079145;28;20211;-95
2022/09/12 12:08:03;;;;;;;4.32;1.30;;;25.00;99.90;;;;;;5084660;28;20174;-96
2022/09/12 12:10:41;;;;;;;1.52;1.35;;;24.90;99.90;;;;;;5075695;28;20190;-93
2022/09/12 12:13:30;;;;;;;0.82;0.80;;;24.90;99.90;;;;;;5073722;28;20194;-93
2022/09/12 12:16:06;;;;;;;6.90;1.38;;;25.00;99.90;;;;;;5080039;28;20274;-90
2022/09/12 12:18:36;;;;;;;1.25;1.15;;;25.10;99.90;;;;;;5080998;28;20246;-93
2022/09/12 12:21:52;;;;;;;1.80;1.40;;;25.20;99.90;;;;;;5064029;28;20163;-92
2022/09/12 12:24:24;;;;;;;1.60;1.42;;;25.30;99.90;;;;;;5022077;28;20280;-93
2022/09/12 12:26:51;;;;;;;1.52;1.17;;;25.20;99.90;;;;;;5060047;28;20210;-95
2022/09/12 12:29:16;;;;;;;6.03;0.98;;;25.10;99.90;;;;;;5077836;28;20175;-96
2022/09/12 12:32:03;;;;;;;1.35;1.05;;;25.10;99.90;;;;;;5076689;28;20202;-93
2022/09/12 12:34:43;;;;;;;1.00;0.75;;;25.20;99.90;;;;;;5079072;28;20203;-93
2022/09/12 12:37:17;;;;;;;1.00;0.93;;;25.30;99.90;;;;;;5083930;28;20171;-87
2022/09/12 12:39:49;;;;;;;2.42;1.20;;;25.40;99.90;;;;;;5083146;28;20177;-92
2022/09/12 12:42:33;;;;;;;1.42;1.08;;;25.40;99.90;;;;;;5065902;28;20163;-96
2022/09/12 12:45:26;;;;;;;2.25;1.02;;;25.40;99.90;;;;;;5080816;28;20256;-92
2022/09/12 12:47:55;;;;;;;2.35;1.45;;;25.50;99.90;;;;;;5042850;28;20193;-96
2022/09/12 12:50:26;;;;;;;8.23;0.95;;;25.30;99.90;;;;;;5082243;28;20172;-93
2022/09/12 12:52:59;;;;;;;1.30;1.20;;;25.30;99.90;;;;;;5064758;28;20180;-94
2022/09/12 12:55:53;;;;;;;1.67;1.30;;;25.30;99.90;;;;;;5084128;28;20183;-93
2022/09/12 12:58:25;;;;;;;4.60;1.30;;;25.50;99.90;;;;;;5080861;28;20187;-95
2022/09/12 13:01:02;;;;;;;8.65;1.35;;;25.50;99.90;;;;;;5080904;28;20604;-93
2022/09/12 13:03:30;;;;;;;7.40;1.25;;;25.40;99.90;;;;;;5082193;28;20198;-95
2022/09/12 13:06:07;;;;;;;1.85;1.10;;;25.40;99.90;;;;;;5035058;28;20231;-96
2022/09/12 13:08:35;;;;;;;1.23;0.95;;;25.40;99.90;;;;;;5035202;28;20176;-96
2022/09/12 13:11:05;;;;;;;3.55;1.30;;;25.60;99.90;;;;;;5079260;28;20170;-95